Terminal Aerodrome Forecast
Issued by NWS La Crosse, WI

Home | Current Version | Previous Version | Text Only | Print | Product List | Glossary On
Versions: 1 2 3 4 5 6 7 8 9 10 11 12 13 14 15 16
000
FTUS43 KARX 271720
TAFLSE
TAF
KLSE 271720Z 2718/2818 20006KT P6SM SCT035
     FM272300 14005KT P6SM VCTS BKN040CB
     FM280500 06006KT 5SM -SHRA BR BKN025
      TEMPO 2809/2813 2SM -SHRA BR BKN015=

USA.gov is the U.S. government's official web portal to all federal, state and local government web resources and services.